sensor_id;sensor_type;location;lat;lon;timestamp;pressure;altitude;pressure_sealevel;temperature;humidity
48652;BME280;34442;52.362;-1.302;2023-01-09T00:01:16;97551.19;;;6.26;100.00
48652;BME280;34442;52.362;-1.302;2023-01-09T00:03:42;97545.84;;;6.26;100.00
48652;BME280;34442;52.362;-1.302;2023-01-09T00:06:08;97538.88;;;6.25;100.00
48652;BME280;34442;52.362;-1.302;2023-01-09T00:08:33;97541.28;;;6.21;100.00
48652;BME280;34442;52.362;-1.302;2023-01-09T00:10:59;97547.59;;;6.15;100.00
48652;BME280;34442;52.362;-1.302;2023-01-09T00:13:25;97547.28;;;6.12;100.00
48652;BME280;34442;52.362;-1.302;2023-01-09T00:15:50;97545.09;;;6.09;100.00
48652;BME280;34442;52.362;-1.302;2023-01-09T00:18:15;97552.06;;;6.10;100.00
48652;BME280;34442;52.362;-1.302;2023-01-09T00:20:41;97556.34;;;6.11;100.00
48652;BME280;34442;52.362;-1.302;2023-01-09T00:23:06;97552.88;;;6.10;100.00
48652;BME280;34442;52.362;-1.302;2023-01-09T00:25:32;97561.66;;;6.11;100.00
48652;BME280;34442;52.362;-1.302;2023-01-09T00:27:57;97564.06;;;6.12;100.00
48652;BME280;34442;52.362;-1.302;2023-01-09T00:30:23;97566.75;;;6.12;100.00
48652;BME280;34442;52.362;-1.302;2023-01-09T00:32:49;97565.72;;;6.13;100.00
48652;BME280;34442;52.362;-1.302;2023-01-09T00:35:16;97574.25;;;6.15;100.00
48652;BME280;34442;52.362;-1.302;2023-01-09T00:37:43;97576.50;;;5.85;100.00
48652;BME280;34442;52.362;-1.302;2023-01-09T00:40:09;97574.47;;;5.75;100.00
48652;BME280;34442;52.362;-1.302;2023-01-09T00:42:35;97571.25;;;5.73;100.00
48652;BME280;34442;52.362;-1.302;2023-01-09T00:45:03;97566.16;;;5.71;100.00
48652;BME280;34442;52.362;-1.302;2023-01-09T00:47:34;97579.47;;;5.71;100.00
48652;BME280;34442;52.362;-1.302;2023-01-09T00:50:05;97582.97;;;5.72;100.00
48652;BME280;34442;52.362;-1.302;2023-01-09T00:52:33;97595.19;;;5.68;100.00
48652;BME280;34442;52.362;-1.302;2023-01-09T00:55:01;97605.75;;;5.63;100.00
48652;BME280;34442;52.362;-1.302;2023-01-09T00:57:26;97602.53;;;5.61;100.00
48652;BME280;34442;52.362;-1.302;2023-01-09T00:59:52;97601.72;;;5.60;100.00
48652;BME280;34442;52.362;-1.302;2023-01-09T01:02:17;97616.91;;;5.60;100.00
48652;BME280;34442;52.362;-1.302;2023-01-09T01:04:43;97606.47;;;5.58;100.00
48652;BME280;34442;52.362;-1.302;2023-01-09T01:07:40;97608.09;;;5.59;100.00
48652;BME280;34442;52.362;-1.302;2023-01-09T01:10:18;97613.13;;;5.56;100.00
48652;BME280;34442;52.362;-1.302;2023-01-09T01:12:45;97616.31;;;5.58;100.00
48652;BME280;34442;52.362;-1.302;2023-01-09T01:15:11;97614.47;;;5.58;100.00
48652;BME280;34442;52.362;-1.302;2023-01-09T01:17:38;97616.59;;;5.56;100.00
48652;BME280;34442;52.362;-1.302;2023-01-09T01:20:07;97625.31;;;5.52;100.00
48652;BME280;34442;52.362;-1.302;2023-01-09T01:22:33;97629.31;;;5.54;100.00
48652;BME280;34442;52.362;-1.302;2023-01-09T01:24:59;97624.97;;;5.48;100.00
48652;BME280;34442;52.362;-1.302;2023-01-09T01:27:24;97632.97;;;5.48;100.00
48652;BME280;34442;52.362;-1.302;2023-01-09T01:29:51;97635.78;;;5.41;100.00
48652;BME280;34442;52.362;-1.302;2023-01-09T01:32:16;97638.44;;;5.41;100.00
48652;BME280;34442;52.362;-1.302;2023-01-09T01:34:42;97645.16;;;5.44;100.00
48652;BME280;34442;52.362;-1.302;2023-01-09T01:37:07;97653.97;;;5.44;100.00
48652;BME280;34442;52.362;-1.302;2023-01-09T01:39:35;97655.00;;;5.43;100.00
48652;BME280;34442;52.362;-1.302;2023-01-09T01:42:05;97665.66;;;5.43;100.00
48652;BME280;34442;52.362;-1.302;2023-01-09T01:45:09;97680.13;;;5.47;100.00
48652;BME280;34442;52.362;-1.302;2023-01-09T01:50:38;97679.53;;;5.45;100.00
48652;BME280;34442;52.362;-1.302;2023-01-09T01:53:25;97688.59;;;5.44;100.00
48652;BME280;34442;52.362;-1.302;2023-01-09T01:58:26;97690.13;;;5.40;100.00
48652;BME280;34442;52.362;-1.302;2023-01-09T02:00:52;97696.25;;;5.41;100.00
48652;BME280;34442;52.362;-1.302;2023-01-09T02:03:20;97705.28;;;5.40;100.00
48652;BME280;34442;52.362;-1.302;2023-01-09T02:05:47;97705.38;;;5.45;100.00
48652;BME280;34442;52.362;-1.302;2023-01-09T02:08:13;97714.44;;;5.44;100.00
48652;BME280;34442;52.362;-1.302;2023-01-09T02:10:39;97722.88;;;5.41;100.00
48652;BME280;34442;52.362;-1.302;2023-01-09T02:13:05;97711.97;;;5.42;100.00
48652;BME280;34442;52.362;-1.302;2023-01-09T02:15:52;97723.78;;;5.46;100.00
48652;BME280;34442;52.362;-1.302;2023-01-09T02:40:32;97777.56;;;5.43;100.00
48652;BME280;34442;52.362;-1.302;2023-01-09T02:43:00;97778.59;;;5.42;100.00
48652;BME280;34442;52.362;-1.302;2023-01-09T02:45:26;97783.44;;;5.45;100.00
48652;BME280;34442;52.362;-1.302;2023-01-09T02:47:52;97783.69;;;5.44;100.00
48652;BME280;34442;52.362;-1.302;2023-01-09T02:50:26;97777.19;;;5.52;100.00
48652;BME280;34442;52.362;-1.302;2023-01-09T02:56:36;97796.72;;;5.57;100.00
48652;BME280;34442;52.362;-1.302;2023-01-09T03:02:07;97803.44;;;5.60;100.00
48652;BME280;34442;52.362;-1.302;2023-01-09T03:09:54;97809.38;;;5.50;100.00
48652;BME280;34442;52.362;-1.302;2023-01-09T03:12:22;97812.03;;;5.50;100.00
48652;BME280;34442;52.362;-1.302;2023-01-09T03:14:56;97818.97;;;5.51;100.00
48652;BME280;34442;52.362;-1.302;2023-01-09T03:17:29;97814.25;;;5.53;100.00
48652;BME280;34442;52.362;-1.302;2023-01-09T03:19:56;97819.22;;;5.50;100.00
48652;BME280;34442;52.362;-1.302;2023-01-09T03:22:23;97825.03;;;5.46;100.00
48652;BME280;34442;52.362;-1.302;2023-01-09T03:24:49;97819.94;;;5.45;100.00
48652;BME280;34442;52.362;-1.302;2023-01-09T03:27:14;97827.94;;;5.45;100.00
48652;BME280;34442;52.362;-1.302;2023-01-09T03:29:40;97831.53;;;5.39;100.00
48652;BME280;34442;52.362;-1.302;2023-01-09T03:32:05;97827.84;;;5.40;100.00
48652;BME280;34442;52.362;-1.302;2023-01-09T03:34:31;97836.19;;;5.43;100.00
48652;BME280;34442;52.362;-1.302;2023-01-09T03:36:56;97843.13;;;5.44;100.00
48652;BME280;34442;52.362;-1.302;2023-01-09T03:39:22;97848.88;;;5.53;100.00
48652;BME280;34442;52.362;-1.302;2023-01-09T03:41:47;97850.03;;;5.57;100.00
48652;BME280;34442;52.362;-1.302;2023-01-09T03:44:12;97855.25;;;5.52;100.00
48652;BME280;34442;52.362;-1.302;2023-01-09T03:46:38;97859.78;;;5.52;100.00
48652;BME280;34442;52.362;-1.302;2023-01-09T03:49:03;97857.13;;;5.52;100.00
48652;BME280;34442;52.362;-1.302;2023-01-09T03:51:29;97869.28;;;5.47;100.00
48652;BME280;34442;52.362;-1.302;2023-01-09T03:53:54;97875.44;;;5.48;100.00
48652;BME280;34442;52.362;-1.302;2023-01-09T03:56:19;97878.56;;;5.45;100.00
48652;BME280;34442;52.362;-1.302;2023-01-09T03:58:45;97883.06;;;5.44;100.00
48652;BME280;34442;52.362;-1.302;2023-01-09T04:01:10;97881.22;;;5.45;100.00
48652;BME280;34442;52.362;-1.302;2023-01-09T04:03:37;97883.88;;;5.45;100.00
48652;BME280;34442;52.362;-1.302;2023-01-09T04:06:03;97886.53;;;5.45;100.00
48652;BME280;34442;52.362;-1.302;2023-01-09T04:08:29;97896.97;;;5.46;100.00
48652;BME280;34442;52.362;-1.302;2023-01-09T04:10:55;97892.69;;;5.45;100.00
48652;BME280;34442;52.362;-1.302;2023-01-09T04:13:21;97898.59;;;5.47;100.00
48652;BME280;34442;52.362;-1.302;2023-01-09T04:15:46;97896.75;;;5.48;100.00
48652;BME280;34442;52.362;-1.302;2023-01-09T04:18:12;97899.41;;;5.48;100.00
48652;BME280;34442;52.362;-1.302;2023-01-09T04:20:37;97901.81;;;5.50;100.00
48652;BME280;34442;52.362;-1.302;2023-01-09T04:23:03;97901.25;;;5.47;100.00
48652;BME280;34442;52.362;-1.302;2023-01-09T04:25:29;97904.94;;;5.46;100.00
48652;BME280;34442;52.362;-1.302;2023-01-09T04:27:54;97906.00;;;5.45;100.00
48652;BME280;34442;52.362;-1.302;2023-01-09T04:30:22;97916.09;;;5.43;100.00
48652;BME280;34442;52.362;-1.302;2023-01-09T04:32:48;97913.44;;;5.43;100.00
48652;BME280;34442;52.362;-1.302;2023-01-09T04:35:13;97907.63;;;5.46;100.00
48652;BME280;34442;52.362;-1.302;2023-01-09T04:37:39;97920.13;;;5.46;100.00
48652;BME280;34442;52.362;-1.302;2023-01-09T04:40:05;97910.78;;;5.43;100.00
48652;BME280;34442;52.362;-1.302;2023-01-09T04:42:35;97916.41;;;5.47;100.00
48652;BME280;34442;52.362;-1.302;2023-01-09T04:45:00;97920.22;;;5.51;100.00
48652;BME280;34442;52.362;-1.302;2023-01-09T04:47:26;97923.25;;;5.55;100.00
48652;BME280;34442;52.362;-1.302;2023-01-09T04:49:51;97928.56;;;5.55;100.00
48652;BME280;34442;52.362;-1.302;2023-01-09T04:52:17;97936.22;;;5.51;100.00
48652;BME280;34442;52.362;-1.302;2023-01-09T04:54:42;97933.00;;;5.49;100.00
48652;BME280;34442;52.362;-1.302;2023-01-09T04:57:08;97929.63;;;5.54;100.00
48652;BME280;34442;52.362;-1.302;2023-01-09T04:59:33;97931.81;;;5.57;100.00
48652;BME280;34442;52.362;-1.302;2023-01-09T05:01:59;97939.00;;;5.56;100.00
48652;BME280;34442;52.362;-1.302;2023-01-09T05:04:24;97937.72;;;5.59;100.00
48652;BME280;34442;52.362;-1.302;2023-01-09T05:06:50;97946.66;;;5.64;100.00
48652;BME280;34442;52.362;-1.302;2023-01-09T05:09:16;97955.44;;;5.65;100.00
48652;BME280;34442;52.362;-1.302;2023-01-09T05:11:41;97945.13;;;5.68;100.00
48652;BME280;34442;52.362;-1.302;2023-01-09T05:14:07;97945.69;;;5.70;100.00
48652;BME280;34442;52.362;-1.302;2023-01-09T05:16:32;97947.56;;;5.70;100.00
48652;BME280;34442;52.362;-1.302;2023-01-09T05:18:58;97953.69;;;5.70;100.00
48652;BME280;34442;52.362;-1.302;2023-01-09T05:21:25;97956.34;;;5.70;100.00
48652;BME280;34442;52.362;-1.302;2023-01-09T05:23:51;97953.13;;;5.68;100.00
48652;BME280;34442;52.362;-1.302;2023-01-09T05:26:18;97954.63;;;5.64;100.00
48652;BME280;34442;52.362;-1.302;2023-01-09T05:28:48;97960.78;;;5.65;100.00
48652;BME280;34442;52.362;-1.302;2023-01-09T05:31:14;97965.50;;;5.63;100.00
48652;BME280;34442;52.362;-1.302;2023-01-09T05:33:39;97961.00;;;5.63;100.00
48652;BME280;34442;52.362;-1.302;2023-01-09T05:36:05;97973.06;;;5.66;100.00
48652;BME280;34442;52.362;-1.302;2023-01-09T05:38:31;97978.38;;;5.66;100.00
48652;BME280;34442;52.362;-1.302;2023-01-09T05:40:56;97972.50;;;5.64;100.00
48652;BME280;34442;52.362;-1.302;2023-01-09T05:43:21;97973.84;;;5.66;100.00
48652;BME280;34442;52.362;-1.302;2023-01-09T05:45:47;97978.13;;;5.67;100.00
48652;BME280;34442;52.362;-1.302;2023-01-09T05:48:12;97977.22;;;5.62;100.00
48652;BME280;34442;52.362;-1.302;2023-01-09T05:50:38;97977.22;;;5.62;100.00
48652;BME280;34442;52.362;-1.302;2023-01-09T05:53:03;97985.56;;;5.65;100.00
48652;BME280;34442;52.362;-1.302;2023-01-09T05:55:28;97986.38;;;5.66;100.00
48652;BME280;34442;52.362;-1.302;2023-01-09T05:57:54;97991.16;;;5.64;100.00
48652;BME280;34442;52.362;-1.302;2023-01-09T06:00:19;97980.13;;;5.60;100.00
48652;BME280;34442;52.362;-1.302;2023-01-09T06:02:45;97977.22;;;5.62;100.00
48652;BME280;34442;52.362;-1.302;2023-01-09T06:05:10;97991.59;;;5.61;100.00
48652;BME280;34442;52.362;-1.302;2023-01-09T06:07:36;97992.88;;;5.58;100.00
48652;BME280;34442;52.362;-1.302;2023-01-09T06:10:07;97986.28;;;5.61;100.00
48652;BME280;34442;52.362;-1.302;2023-01-09T06:12:34;97991.72;;;5.54;100.00
48652;BME280;34442;52.362;-1.302;2023-01-09T06:15:00;97993.56;;;5.77;100.00
48652;BME280;34442;52.362;-1.302;2023-01-09T06:17:25;98000.84;;;5.93;100.00
48652;BME280;34442;52.362;-1.302;2023-01-09T06:19:50;98008.38;;;5.96;100.00
48652;BME280;34442;52.362;-1.302;2023-01-09T06:22:16;98022.03;;;6.00;100.00
48652;BME280;34442;52.362;-1.302;2023-01-09T06:24:41;98029.34;;;6.05;100.00
48652;BME280;34442;52.362;-1.302;2023-01-09T06:27:07;98025.28;;;6.02;100.00
48652;BME280;34442;52.362;-1.302;2023-01-09T06:29:32;98032.25;;;6.03;100.00
48652;BME280;34442;52.362;-1.302;2023-01-09T06:31:58;98030.38;;;6.04;100.00
48652;BME280;34442;52.362;-1.302;2023-01-09T06:34:23;98035.16;;;6.02;100.00
48652;BME280;34442;52.362;-1.302;2023-01-09T06:36:49;98030.84;;;6.01;100.00
48652;BME280;34442;52.362;-1.302;2023-01-09T06:39:14;98035.88;;;5.97;100.00
48652;BME280;34442;52.362;-1.302;2023-01-09T06:41:40;98039.56;;;5.96;100.00
48652;BME280;34442;52.362;-1.302;2023-01-09T06:44:05;98051.63;;;5.99;100.00
48652;BME280;34442;52.362;-1.302;2023-01-09T06:46:31;98040.72;;;6.00;100.00
48652;BME280;34442;52.362;-1.302;2023-01-09T06:48:56;98058.34;;;6.01;100.00
48652;BME280;34442;52.362;-1.302;2023-01-09T06:51:22;98060.09;;;5.95;100.00
48652;BME280;34442;52.362;-1.302;2023-01-09T06:53:47;98072.22;;;5.91;100.00
48652;BME280;34442;52.362;-1.302;2023-01-09T06:56:12;98062.72;;;5.84;100.00
48652;BME280;34442;52.362;-1.302;2023-01-09T06:58:38;98073.63;;;5.82;100.00
48652;BME280;34442;52.362;-1.302;2023-01-09T07:01:04;98079.06;;;5.76;100.00
48652;BME280;34442;52.362;-1.302;2023-01-09T07:03:29;98083.72;;;5.80;100.00
48652;BME280;34442;52.362;-1.302;2023-01-09T07:05:55;98088.94;;;5.87;100.00
48652;BME280;34442;52.362;-1.302;2023-01-09T07:08:20;98091.84;;;5.85;100.00
48652;BME280;34442;52.362;-1.302;2023-01-09T07:10:46;98091.50;;;5.93;100.00
48652;BME280;34442;52.362;-1.302;2023-01-09T07:13:11;98079.56;;;5.96;100.00
48652;BME280;34442;52.362;-1.302;2023-01-09T07:15:37;98100.19;;;6.01;100.00
48652;BME280;34442;52.362;-1.302;2023-01-09T07:18:02;98094.03;;;6.12;100.00
48652;BME280;34442;52.362;-1.302;2023-01-09T07:20:28;98105.06;;;6.15;100.00
48652;BME280;34442;52.362;-1.302;2023-01-09T07:22:54;98111.78;;;6.18;100.00
48652;BME280;34442;52.362;-1.302;2023-01-09T07:25:19;98117.47;;;6.21;100.00
48652;BME280;34442;52.362;-1.302;2023-01-09T07:27:46;98125.31;;;6.28;100.00
48652;BME280;34442;52.362;-1.302;2023-01-09T07:30:12;98128.94;;;6.34;100.00
48652;BME280;34442;52.362;-1.302;2023-01-09T07:32:38;98138.44;;;6.30;100.00
48652;BME280;34442;52.362;-1.302;2023-01-09T07:35:06;98136.00;;;6.28;100.00
48652;BME280;34442;52.362;-1.302;2023-01-09T07:37:32;98144.72;;;6.24;100.00
48652;BME280;34442;52.362;-1.302;2023-01-09T07:39:58;98144.81;;;6.29;100.00
48652;BME280;34442;52.362;-1.302;2023-01-09T07:42:24;98145.50;;;6.24;100.00
48652;BME280;34442;52.362;-1.302;2023-01-09T07:44:49;98152.47;;;6.25;100.00
48652;BME280;34442;52.362;-1.302;2023-01-09T07:47:15;98161.41;;;6.19;100.00
48652;BME280;34442;52.362;-1.302;2023-01-09T07:49:40;98171.03;;;6.20;100.00
48652;BME280;34442;52.362;-1.302;2023-01-09T07:52:05;98172.53;;;6.28;100.00
48652;BME280;34442;52.362;-1.302;2023-01-09T07:54:31;98177.97;;;6.33;100.00
48652;BME280;34442;52.362;-1.302;2023-01-09T07:56:56;98194.25;;;6.31;100.00
48652;BME280;34442;52.362;-1.302;2023-01-09T07:59:22;98188.78;;;6.38;100.00
48652;BME280;34442;52.362;-1.302;2023-01-09T08:01:47;98197.59;;;6.38;100.00
48652;BME280;34442;52.362;-1.302;2023-01-09T08:04:13;98210.13;;;6.38;100.00
48652;BME280;34442;52.362;-1.302;2023-01-09T08:06:38;98213.38;;;6.40;100.00
48652;BME280;34442;52.362;-1.302;2023-01-09T08:09:04;98221.47;;;6.45;100.00
48652;BME280;34442;52.362;-1.302;2023-01-09T08:11:29;98219.41;;;6.47;100.00
48652;BME280;34442;52.362;-1.302;2023-01-09T08:13:56;98217.91;;;6.39;100.00
48652;BME280;34442;52.362;-1.302;2023-01-09T08:16:21;98230.66;;;6.37;100.00
48652;BME280;34442;52.362;-1.302;2023-01-09T08:18:50;98238.44;;;6.39;100.00
48652;BME280;34442;52.362;-1.302;2023-01-09T08:21:19;98242.03;;;6.44;100.00
48652;BME280;34442;52.362;-1.302;2023-01-09T08:23:44;98252.59;;;6.51;100.00
48652;BME280;34442;52.362;-1.302;2023-01-09T08:26:10;98253.75;;;6.55;100.00
48652;BME280;34442;52.362;-1.302;2023-01-09T08:28:35;98259.91;;;6.56;100.00
48652;BME280;34442;52.362;-1.302;2023-01-09T08:31:01;98270.94;;;6.59;100.00
48652;BME280;34442;52.362;-1.302;2023-01-09T08:33:26;98278.13;;;6.59;100.00
48652;BME280;34442;52.362;-1.302;2023-01-09T08:35:53;98284.28;;;6.59;100.00
48652;BME280;34442;52.362;-1.302;2023-01-09T08:38:19;98283.22;;;6.60;100.00
48652;BME280;34442;52.362;-1.302;2023-01-09T08:40:46;98295.06;;;6.53;100.00
48652;BME280;34442;52.362;-1.302;2023-01-09T08:43:13;98297.03;;;6.57;100.00
48652;BME280;34442;52.362;-1.302;2023-01-09T08:45:57;98307.34;;;6.65;100.00
48652;BME280;34442;52.362;-1.302;2023-01-09T08:48:42;98307.00;;;6.62;100.00
48652;BME280;34442;52.362;-1.302;2023-01-09T08:51:11;98321.75;;;6.64;100.00
48652;BME280;34442;52.362;-1.302;2023-01-09T08:53:36;98332.78;;;6.68;100.00
48652;BME280;34442;52.362;-1.302;2023-01-09T08:56:02;98343.69;;;6.78;100.00
48652;BME280;34442;52.362;-1.302;2023-01-09T08:58:28;98348.56;;;6.81;100.00
48652;BME280;34442;52.362;-1.302;2023-01-09T09:00:54;98350.91;;;6.78;100.00
48652;BME280;34442;52.362;-1.302;2023-01-09T09:03:20;98361.91;;;6.69;100.00
48652;BME280;34442;52.362;-1.302;2023-01-09T09:05:46;98375.06;;;6.71;100.00
48652;BME280;34442;52.362;-1.302;2023-01-09T09:08:11;98388.53;;;6.88;100.00
48652;BME280;34442;52.362;-1.302;2023-01-09T09:10:36;98388.41;;;6.94;100.00
48652;BME280;34442;52.362;-1.302;2023-01-09T09:13:02;98382.34;;;6.99;100.00
48652;BME280;34442;52.362;-1.302;2023-01-09T09:15:28;98392.72;;;6.95;100.00
48652;BME280;34442;52.362;-1.302;2023-01-09T09:17:59;98408.50;;;6.85;100.00
48652;BME280;34442;52.362;-1.302;2023-01-09T09:20:29;98409.31;;;6.86;100.00
48652;BME280;34442;52.362;-1.302;2023-01-09T09:22:55;98420.44;;;6.83;100.00
48652;BME280;34442;52.362;-1.302;2023-01-09T09:25:21;98433.13;;;6.87;100.00
48652;BME280;34442;52.362;-1.302;2023-01-09T09:27:46;98434.63;;;6.95;100.00
48652;BME280;34442;52.362;-1.302;2023-01-09T09:30:14;98446.13;;;6.95;100.00
48652;BME280;34442;52.362;-1.302;2023-01-09T09:32:42;98450.44;;;6.96;100.00
48652;BME280;34442;52.362;-1.302;2023-01-09T09:35:08;98461.94;;;6.97;100.00
48652;BME280;34442;52.362;-1.302;2023-01-09T09:37:37;98465.66;;;6.96;100.00
48652;BME280;34442;52.362;-1.302;2023-01-09T09:40:04;98477.59;;;6.93;100.00
48652;BME280;34442;52.362;-1.302;2023-01-09T09:53:21;98511.19;;;7.01;100.00
48652;BME280;34442;52.362;-1.302;2023-01-09T09:55:51;98520.59;;;7.04;100.00
48652;BME280;34442;52.362;-1.302;2023-01-09T09:58:43;98529.19;;;7.06;100.00
48652;BME280;34442;52.362;-1.302;2023-01-09T10:01:14;98543.25;;;7.01;100.00
48652;BME280;34442;52.362;-1.302;2023-01-09T10:06:22;98547.69;;;7.19;100.00
48652;BME280;34442;52.362;-1.302;2023-01-09T10:09:05;98558.84;;;7.28;100.00
48652;BME280;34442;52.362;-1.302;2023-01-09T10:14:12;98566.38;;;7.19;100.00
48652;BME280;34442;52.362;-1.302;2023-01-09T10:23:36;98584.88;;;7.32;100.00
48652;BME280;34442;52.362;-1.302;2023-01-09T10:31:33;98608.63;;;7.64;100.00
48652;BME280;34442;52.362;-1.302;2023-01-09T10:34:29;98611.09;;;7.65;100.00
48652;BME280;34442;52.362;-1.302;2023-01-09T10:40:16;98616.22;;;7.79;100.00
48652;BME280;34442;52.362;-1.302;2023-01-09T10:42:49;98628.28;;;7.81;100.00
48652;BME280;34442;52.362;-1.302;2023-01-09T10:45:27;98643.19;;;7.77;100.00
48652;BME280;34442;52.362;-1.302;2023-01-09T10:48:00;98647.25;;;7.80;100.00
48652;BME280;34442;52.362;-1.302;2023-01-09T10:50:32;98653.53;;;7.85;100.00
48652;BME280;34442;52.362;-1.302;2023-01-09T10:52:59;98648.78;;;7.76;100.00
48652;BME280;34442;52.362;-1.302;2023-01-09T10:55:44;98663.28;;;7.68;100.00
48652;BME280;34442;52.362;-1.302;2023-01-09T10:58:16;98668.31;;;7.76;100.00
48652;BME280;34442;52.362;-1.302;2023-01-09T11:00:43;98673.44;;;7.78;100.00
48652;BME280;34442;52.362;-1.302;2023-01-09T11:03:20;98672.38;;;7.67;100.00
48652;BME280;34442;52.362;-1.302;2023-01-09T11:05:54;98675.94;;;7.61;100.00
48652;BME280;34442;52.362;-1.302;2023-01-09T11:10:55;98682.09;;;7.50;100.00
48652;BME280;34442;52.362;-1.302;2023-01-09T11:13:24;98683.31;;;7.35;100.00
48652;BME280;34442;52.362;-1.302;2023-01-09T11:16:19;98686.44;;;7.32;100.00
48652;BME280;34442;52.362;-1.302;2023-01-09T11:18:57;98696.00;;;7.40;100.00
48652;BME280;34442;52.362;-1.302;2023-01-09T11:23:53;98693.28;;;7.28;100.00
48652;BME280;34442;52.362;-1.302;2023-01-09T11:26:24;98708.63;;;7.21;100.00
48652;BME280;34442;52.362;-1.302;2023-01-09T11:29:09;98711.00;;;7.11;100.00
48652;BME280;34442;52.362;-1.302;2023-01-09T11:31:35;98713.09;;;7.09;100.00
48652;BME280;34442;52.362;-1.302;2023-01-09T11:34:00;98720.50;;;7.07;100.00
48652;BME280;34442;52.362;-1.302;2023-01-09T11:36:26;98723.19;;;7.07;100.00
48652;BME280;34442;52.362;-1.302;2023-01-09T11:38:54;98726.91;;;7.06;100.00
48652;BME280;34442;52.362;-1.302;2023-01-09T11:41:33;98721.63;;;7.17;100.00
48652;BME280;34442;52.362;-1.302;2023-01-09T11:44:02;98732.53;;;7.16;100.00
48652;BME280;34442;52.362;-1.302;2023-01-09T11:46:38;98729.50;;;7.12;100.00
48652;BME280;34442;52.362;-1.302;2023-01-09T11:51:41;98717.94;;;7.30;100.00
48652;BME280;34442;52.362;-1.302;2023-01-09T11:54:26;98723.41;;;7.35;100.00
48652;BME280;34442;52.362;-1.302;2023-01-09T11:56:53;98725.31;;;7.46;100.00
48652;BME280;34442;52.362;-1.302;2023-01-09T11:59:21;98730.59;;;7.53;100.00
48652;BME280;34442;52.362;-1.302;2023-01-09T12:04:40;98735.38;;;7.63;100.00
48652;BME280;34442;52.362;-1.302;2023-01-09T12:37:42;98771.25;;;7.74;100.00
48652;BME280;34442;52.362;-1.302;2023-01-09T12:48:37;98799.53;;;7.93;100.00
48652;BME280;34442;52.362;-1.302;2023-01-09T12:53:37;98810.16;;;8.00;100.00
48652;BME280;34442;52.362;-1.302;2023-01-09T12:56:22;98815.16;;;7.96;100.00
48652;BME280;34442;52.362;-1.302;2023-01-09T12:59:00;98815.06;;;8.03;100.00
48652;BME280;34442;52.362;-1.302;2023-01-09T13:01:35;98818.44;;;8.10;100.00
48652;BME280;34442;52.362;-1.302;2023-01-09T13:04:11;98820.25;;;8.28;100.00
48652;BME280;34442;52.362;-1.302;2023-01-09T13:06:44;98833.47;;;8.23;100.00
48652;BME280;34442;52.362;-1.302;2023-01-09T13:09:20;98826.03;;;8.25;100.00
48652;BME280;34442;52.362;-1.302;2023-01-09T13:11:53;98837.44;;;8.20;100.00
48652;BME280;34442;52.362;-1.302;2023-01-09T13:14:34;98840.59;;;8.29;100.00
48652;BME280;34442;52.362;-1.302;2023-01-09T13:17:02;98840.25;;;8.25;100.00
48652;BME280;34442;52.362;-1.302;2023-01-09T13:19:35;98842.66;;;8.15;100.00
48652;BME280;34442;52.362;-1.302;2023-01-09T13:22:05;98846.97;;;8.16;100.00
48652;BME280;34442;52.362;-1.302;2023-01-09T13:24:41;98853.38;;;8.27;100.00
48652;BME280;34442;52.362;-1.302;2023-01-09T13:27:19;98858.63;;;8.21;100.00
48652;BME280;34442;52.362;-1.302;2023-01-09T13:29:52;98874.19;;;8.13;100.00
48652;BME280;34442;52.362;-1.302;2023-01-09T13:33:19;98876.75;;;8.08;100.00
48652;BME280;34442;52.362;-1.302;2023-01-09T13:35:19;98883.34;;;8.05;100.00
48652;BME280;34442;52.362;-1.302;2023-01-09T13:37:50;98884.03;;;8.01;100.00
48652;BME280;34442;52.362;-1.302;2023-01-09T13:40:25;98883.59;;;8.04;100.00
48652;BME280;34442;52.362;-1.302;2023-01-09T13:43:01;98878.97;;;8.11;100.00
48652;BME280;34442;52.362;-1.302;2023-01-09T13:45:30;98888.63;;;8.12;100.00
48652;BME280;34442;52.362;-1.302;2023-01-09T13:50:36;98909.03;;;7.94;100.00
48652;BME280;34442;52.362;-1.302;2023-01-09T14:06:38;98945.72;;;8.06;100.00
48652;BME280;34442;52.362;-1.302;2023-01-09T14:11:34;98962.50;;;8.13;100.00
48652;BME280;34442;52.362;-1.302;2023-01-09T14:14:02;98960.44;;;8.15;100.00
48652;BME280;34442;52.362;-1.302;2023-01-09T14:16:29;98972.47;;;8.24;100.00
48652;BME280;34442;52.362;-1.302;2023-01-09T14:19:06;98979.63;;;8.12;100.00
48652;BME280;34442;52.362;-1.302;2023-01-09T14:21:51;98981.25;;;8.13;100.00
48652;BME280;34442;52.362;-1.302;2023-01-09T14:24:27;98977.63;;;8.07;100.00
48652;BME280;34442;52.362;-1.302;2023-01-09T14:26:58;98983.84;;;8.19;100.00
48652;BME280;34442;52.362;-1.302;2023-01-09T14:29:37;98990.59;;;8.22;100.00
48652;BME280;34442;52.362;-1.302;2023-01-09T14:35:18;99016.47;;;8.10;100.00
48652;BME280;34442;52.362;-1.302;2023-01-09T14:37:58;99013.91;;;8.03;100.00
48652;BME280;34442;52.362;-1.302;2023-01-09T14:40:26;99010.56;;;8.08;100.00
48652;BME280;34442;52.362;-1.302;2023-01-09T14:42:53;99026.00;;;8.06;100.00
48652;BME280;34442;52.362;-1.302;2023-01-09T14:45:24;99027.44;;;8.08;100.00
48652;BME280;34442;52.362;-1.302;2023-01-09T14:48:00;99030.84;;;7.97;100.00
48652;BME280;34442;52.362;-1.302;2023-01-09T14:55:30;99048.31;;;8.00;100.00
48652;BME280;34442;52.362;-1.302;2023-01-09T14:58:26;99057.69;;;7.90;100.00
48652;BME280;34442;52.362;-1.302;2023-01-09T15:01:06;99067.50;;;7.96;100.00
48652;BME280;34442;52.362;-1.302;2023-01-09T15:03:51;99064.00;;;7.96;100.00
48652;BME280;34442;52.362;-1.302;2023-01-09T15:06:20;99078.25;;;7.90;100.00
48652;BME280;34442;52.362;-1.302;2023-01-09T15:09:00;99096.63;;;7.86;100.00
48652;BME280;34442;52.362;-1.302;2023-01-09T15:11:27;99112.22;;;7.89;100.00
48652;BME280;34442;52.362;-1.302;2023-01-09T15:13:54;99113.22;;;7.95;100.00
48652;BME280;34442;52.362;-1.302;2023-01-09T15:16:24;99112.75;;;7.98;100.00
48652;BME280;34442;52.362;-1.302;2023-01-09T15:18:54;99115.06;;;7.94;100.00
48652;BME280;34442;52.362;-1.302;2023-01-09T15:21:25;99120.44;;;7.94;100.00
48652;BME280;34442;52.362;-1.302;2023-01-09T15:23:51;99122.84;;;7.78;100.00
48652;BME280;34442;52.362;-1.302;2023-01-09T15:26:29;99132.69;;;7.77;100.00
48652;BME280;34442;52.362;-1.302;2023-01-09T15:29:07;99127.00;;;7.74;100.00